Hunzedijk — PCJB — position and weather

sailwx.info

Track history (hours):
 
Tides and Currents Weather Stations Pressure Air Temp Water Temp Dewpoint Dewpoint Depression Visibility Wind Speed Wind Dir Waves Ship Positions

Hunzedijk

Last reported at 2017-Sep-21 17:56 UTC. Time now 2017-Sep-24 10:42 UTC.
Position N 36°04' W 000°08'.

Length 90 m; draft 4.1 m.

Type: Cargo ship. MMSI: 246765000.

Date/timePositionNaut miles runAvg speedWind from/ knotsBaromVisibWave heightAir tempDewpointWater temp
2017-Sep-21 17:56N 36°04' W 000°08'0 0.1
2017-Sep-21 16:23N 36°04' W 000°08'0 0.0
2017-Sep-21 15:59N 36°04' W 000°08'0 0.1
2017-Sep-21 15:17N 36°04' W 000°08'0 0.2
2017-Sep-21 14:58N 36°04' W 000°08'3 0.2
2017-Sep-20 20:19N 36°07' W 000°10'18 9.5
2017-Sep-20 18:24N 36°24' W 000°05'610.9
2017-Sep-20 17:49N 36°31' W 000°03'2411.3
2017-Sep-20 15:42N 36°54' E 000°03'211.4
2017-Sep-20 15:30N 36°56' E 000°04'21111.1
2017-Sep-19 20:32N 40°22' E 001°02'010.9
2017-Sep-19 20:30N 40°23' E 001°02'  
2017-Sep-16 12:10N 37°43' W 000°22'3 7.3
2017-Sep-16 11:44N 37°40' W 000°24'2 7.4
2017-Sep-16 11:30N 37°39' W 000°25'4 7.3
2017-Sep-16 11:00N 37°36' W 000°28'4 7.1
2017-Sep-16 10:30N 37°33' W 000°31'9 6.8
2017-Sep-16 09:13N 37°27' W 000°39'3 6.7
2017-Sep-16 08:47N 37°25' W 000°42'2 6.7
2017-Sep-16 08:30N 37°24' W 000°43'3 6.7
2017-Sep-16 08:00N 37°22' W 000°47'6 6.8
2017-Sep-16 07:11N 37°18' W 000°52'225 8.6
2017-Sep-15 04:57N 36°00' W 005°15'612.8
2017-Sep-15 04:30N 35°59' W 005°21'713.0
2017-Sep-15 03:58N 35°57' W 005°30'106 9.5
2017-Sep-14 16:52N 36°13' W 007°39'3 9.2
2017-Sep-14 16:30N 36°14' W 007°43'5 9.4
2017-Sep-14 16:00N 36°15' W 007°49'5 9.8
2017-Sep-14 15:30N 36°16' W 007°54'5 9.5
2017-Sep-14 15:00N 36°18' W 008°00'5 9.4
2017-Sep-14 14:31N 36°19' W 008°06'6 9.2
2017-Sep-14 13:52N 36°20' W 008°13'33 9.1
2017-Sep-14 10:11N 36°29' W 008°53'8 9.4
2017-Sep-14 09:21N 36°31' W 009°02'96 9.0
2017-Sep-13 22:47N 37°58' W 009°53'3 9.2
2017-Sep-13 22:30N 38°00' W 009°54'5 9.3
2017-Sep-13 21:59N 38°05' W 009°56'4 9.0
2017-Sep-13 21:30N 38°09' W 009°57'5 9.6
2017-Sep-13 21:01N 38°13' W 009°59'5 9.7
2017-Sep-13 20:30N 38°18' W 010°00'5 9.8
2017-Sep-13 20:00N 38°23' W 010°01'510.5
2017-Sep-13 19:31N 38°28' W 010°02'510.1
2017-Sep-13 19:00N 38°33' W 010°04'510.3
2017-Sep-13 18:30N 38°38' W 010°05'510.2
2017-Sep-13 18:00N 38°43' W 010°05'510.9
2017-Sep-13 17:30N 38°49' W 010°06'510.8
2017-Sep-13 17:01N 38°54' W 010°06'510.4
2017-Sep-13 16:31N 38°59' W 010°07'510.5
2017-Sep-13 16:01N 39°05' W 010°06'510.6
2017-Sep-13 15:31N 39°10' W 010°06'611.2
2017-Sep-13 15:00N 39°16' W 010°06'711.1
2017-Sep-13 14:21N 39°23' W 010°07'  
Track history (hours):
 
Tides and Currents Weather Stations Pressure Air Temp Water Temp Dewpoint Dewpoint Depression Visibility Wind Speed Wind Dir Waves Ship Positions

Hunzedijk

Last reported at 2017-Sep-21 17:56 UTC. Time now 2017-Sep-24 10:42 UTC.
Position N 36°04' W 000°08'.

Length 90 m; draft 4.1 m.

Type: Cargo ship. MMSI: 246765000.

Date/timePositionNaut miles runAvg speedWind from/ knotsBaromVisibWave heightAir tempDewpointWater temp
2017-Sep-21 17:56N 36°04' W 000°08'0 0.1
2017-Sep-21 16:23N 36°04' W 000°08'0 0.0
2017-Sep-21 15:59N 36°04' W 000°08'0 0.1
2017-Sep-21 15:17N 36°04' W 000°08'0 0.2
2017-Sep-21 14:58N 36°04' W 000°08'3 0.2
2017-Sep-20 20:19N 36°07' W 000°10'18 9.5
2017-Sep-20 18:24N 36°24' W 000°05'610.9
2017-Sep-20 17:49N 36°31' W 000°03'2411.3
2017-Sep-20 15:42N 36°54' E 000°03'211.4
2017-Sep-20 15:30N 36°56' E 000°04'21111.1
2017-Sep-19 20:32N 40°22' E 001°02'010.9
2017-Sep-19 20:30N 40°23' E 001°02'  
2017-Sep-16 12:10N 37°43' W 000°22'3 7.3
2017-Sep-16 11:44N 37°40' W 000°24'2 7.4
2017-Sep-16 11:30N 37°39' W 000°25'4 7.3
2017-Sep-16 11:00N 37°36' W 000°28'4 7.1
2017-Sep-16 10:30N 37°33' W 000°31'9 6.8
2017-Sep-16 09:13N 37°27' W 000°39'3 6.7
2017-Sep-16 08:47N 37°25' W 000°42'2 6.7
2017-Sep-16 08:30N 37°24' W 000°43'3 6.7
2017-Sep-16 08:00N 37°22' W 000°47'6 6.8
2017-Sep-16 07:11N 37°18' W 000°52'225 8.6
2017-Sep-15 04:57N 36°00' W 005°15'612.8
2017-Sep-15 04:30N 35°59' W 005°21'713.0
2017-Sep-15 03:58N 35°57' W 005°30'106 9.5
2017-Sep-14 16:52N 36°13' W 007°39'3 9.2
2017-Sep-14 16:30N 36°14' W 007°43'5 9.4
2017-Sep-14 16:00N 36°15' W 007°49'5 9.8
2017-Sep-14 15:30N 36°16' W 007°54'5 9.5
2017-Sep-14 15:00N 36°18' W 008°00'5 9.4
2017-Sep-14 14:31N 36°19' W 008°06'6 9.2
2017-Sep-14 13:52N 36°20' W 008°13'33 9.1
2017-Sep-14 10:11N 36°29' W 008°53'8 9.4
2017-Sep-14 09:21N 36°31' W 009°02'96 9.0
2017-Sep-13 22:47N 37°58' W 009°53'3 9.2
2017-Sep-13 22:30N 38°00' W 009°54'5 9.3
2017-Sep-13 21:59N 38°05' W 009°56'4 9.0
2017-Sep-13 21:30N 38°09' W 009°57'5 9.6
2017-Sep-13 21:01N 38°13' W 009°59'5 9.7
2017-Sep-13 20:30N 38°18' W 010°00'5 9.8
2017-Sep-13 20:00N 38°23' W 010°01'510.5
2017-Sep-13 19:31N 38°28' W 010°02'510.1
2017-Sep-13 19:00N 38°33' W 010°04'510.3
2017-Sep-13 18:30N 38°38' W 010°05'510.2
2017-Sep-13 18:00N 38°43' W 010°05'510.9
2017-Sep-13 17:30N 38°49' W 010°06'510.8
2017-Sep-13 17:01N 38°54' W 010°06'510.4
2017-Sep-13 16:31N 38°59' W 010°07'510.5
2017-Sep-13 16:01N 39°05' W 010°06'510.6
2017-Sep-13 15:31N 39°10' W 010°06'611.2
2017-Sep-13 15:00N 39°16' W 010°06'711.1
2017-Sep-13 14:21N 39°23' W 010°07'  

Dump ship's entire track history